Time;durP1;ratioP1;P1;durP2;ratioP2;P2;SDS_P1;SDS_P2;PMS_P1;PMS_P2;Temp;Humidity;BMP_temperature;BMP_pressure;BME280_temperature;BME280_humidity;BME280_pressure;Samples;Min_cycle;Max_cycle;Signal;HPM_P1;HPM_P2
2022/06/02 00:02:36;;;;;;;8.60;6.63;;;;;;;22.28;75.65;99502.09;4992500;28;20198;-62
2022/06/02 00:05:15;;;;;;;8.40;6.40;;;;;;;22.08;75.96;99472.22;4992148;28;20194;-63
2022/06/02 00:07:55;;;;;;;8.40;6.50;;;;;;;22.26;75.99;99503.03;4992390;28;20218;-63
2022/06/02 00:10:28;;;;;;;8.53;6.63;;;;;;;22.27;75.67;99489.94;4992446;28;20775;-63
2022/06/02 00:13:01;;;;;;;10.30;6.25;;;;;;;22.28;75.62;99493.38;4991768;28;20452;-62
2022/06/02 00:15:36;;;;;;;9.37;7.17;;;;;;;22.01;75.51;99455.84;4992244;28;20198;-62
2022/06/02 00:18:09;;;;;;;9.83;6.40;;;;;;;22.24;75.31;99494.38;4992146;28;20561;-62
2022/06/02 00:20:42;;;;;;;14.83;7.60;;;;;;;22.26;75.52;99487.34;4991893;28;20227;-61
2022/06/02 00:23:31;;;;;;;8.63;6.50;;;;;;;22.20;75.39;99491.00;4991736;28;20613;-63
2022/06/02 00:26:13;;;;;;;8.80;7.20;;;;;;;22.13;75.54;99491.25;4991558;28;20190;-62
2022/06/02 00:28:47;;;;;;;7.23;6.50;;;;;;;22.07;75.95;99494.03;4992131;28;20266;-62
2022/06/02 00:31:27;;;;;;;11.17;7.00;;;;;;;22.00;76.41;99497.75;4991965;28;20588;-62
2022/06/02 00:34:02;;;;;;;7.77;6.97;;;;;;;22.02;76.15;99494.19;4991895;28;20253;-63
2022/06/02 00:36:37;;;;;;;7.47;6.00;;;;;;;21.98;76.18;99495.16;4991575;28;20198;-63
2022/06/02 00:39:08;;;;;;;10.15;6.05;;;;;;;21.96;75.90;99503.97;4991547;28;20428;-63
2022/06/02 00:41:44;;;;;;;7.00;6.30;;;;;;;21.89;75.92;99499.84;4991703;28;20199;-62
2022/06/02 00:44:21;;;;;;;9.50;5.87;;;;;;;21.80;75.71;99495.69;4991340;28;20197;-63
2022/06/02 00:46:58;;;;;;;7.07;5.90;;;;;;;21.70;76.34;99497.69;4991448;28;20197;-63
2022/06/02 00:49:34;;;;;;;9.50;6.50;;;;;;;21.73;76.32;99500.22;4991480;28;20217;-62
2022/06/02 00:52:21;;;;;;;12.53;6.30;;;;;;;21.77;75.95;99498.41;4991650;28;20197;-62
2022/06/02 00:57:52;;;;;;;11.67;6.53;;;;;;;21.68;76.46;99494.28;4991539;28;20264;-62
2022/06/02 01:00:25;;;;;;;9.60;6.47;;;;;;;21.66;76.50;99487.38;4991387;28;20593;-62
2022/06/02 01:02:55;;;;;;;10.53;5.70;;;;;;;21.66;76.37;99490.84;4991244;28;20272;-63
2022/06/02 01:05:35;;;;;;;7.13;6.13;;;;;;;21.67;76.57;99492.56;4991199;28;20233;-63
2022/06/02 01:08:14;;;;;;;6.70;6.00;;;;;;;21.66;76.54;99490.00;4990985;28;20222;-63
2022/06/02 01:11:03;;;;;;;12.13;7.10;;;;;;;21.70;76.57;99483.75;4990981;28;20194;-63
2022/06/02 01:13:49;;;;;;;6.73;5.90;;;;;;;21.71;76.37;99488.97;4991049;28;20252;-63
2022/06/02 01:16:22;;;;;;;6.93;6.20;;;;;;;21.71;75.79;99481.13;4991219;28;20213;-63
2022/06/02 01:19:00;;;;;;;7.27;5.83;;;;;;;21.65;75.98;99475.19;4991303;28;20186;-63
2022/06/02 01:22:05;;;;;;;7.50;5.90;;;;;;;21.68;75.96;99478.59;4990790;28;20664;-62
2022/06/02 01:25:07;;;;;;;9.60;6.40;;;;;;;21.62;75.62;99473.53;4989353;28;20201;-63
2022/06/02 01:28:06;;;;;;;6.70;6.10;;;;;;;21.57;76.04;99475.41;4991004;28;20268;-62
2022/06/02 01:30:47;;;;;;;8.23;6.03;;;;;;;21.58;75.92;99468.44;4990819;28;20621;-62
2022/06/02 01:33:25;;;;;;;7.30;5.93;;;;;;;21.54;75.66;99465.03;4990993;28;20194;-61
2022/06/02 01:36:04;;;;;;;8.90;6.20;;;;;;;21.49;75.97;99469.56;4990895;28;20197;-62
2022/06/02 01:38:39;;;;;;;10.60;5.90;;;;;;;21.39;76.15;99475.94;4990874;28;20209;-63
2022/06/02 01:41:11;;;;;;;7.80;6.20;;;;;;;;;;4991008;28;20186;-63
2022/06/02 01:43:46;;;;;;;7.77;6.30;;;;;;;21.25;76.32;99467.63;4990950;28;20198;-63
2022/06/02 01:46:34;;;;;;;13.77;7.17;;;;;;;21.18;76.84;99466.06;4990826;28;20197;-66
2022/06/02 01:49:10;;;;;;;10.00;7.23;;;;;;;21.10;76.89;99474.13;4990727;28;20221;-62
2022/06/02 01:51:48;;;;;;;8.30;6.50;;;;;;;21.03;76.53;99469.94;4990541;28;20197;-61
2022/06/02 01:54:32;;;;;;;7.30;6.57;;;;;;;20.96;77.06;99464.88;4990848;28;20198;-62
2022/06/02 01:57:13;;;;;;;7.87;7.03;;;;;;;20.85;77.88;99472.16;4990864;28;20194;-63
2022/06/02 01:59:58;;;;;;;8.13;6.17;;;;;;;20.69;78.29;99470.81;4990489;28;20190;-62
2022/06/02 02:02:40;;;;;;;8.03;6.90;;;;;;;20.66;78.33;99473.53;4990768;28;20621;-62
2022/06/02 02:05:22;;;;;;;8.27;6.55;;;;;;;20.68;78.46;99474.34;4990142;28;20927;-63
2022/06/02 02:08:03;;;;;;;8.27;6.40;;;;;;;20.61;78.31;99471.00;4990680;28;20261;-63
2022/06/02 02:10:40;;;;;;;7.60;6.50;;;;;;;20.57;78.50;99472.00;4990720;28;20186;-62
2022/06/02 02:13:29;;;;;;;9.13;5.93;;;;;;;20.56;78.65;99472.88;4990704;28;20198;-62
2022/06/02 02:16:03;;;;;;;9.63;6.03;;;;;;;20.62;78.59;99474.50;4990421;28;20187;-62
2022/06/02 02:18:48;;;;;;;12.57;6.33;;;;;;;20.65;78.19;99471.81;4990564;28;20221;-62
2022/06/02 02:21:25;;;;;;;8.07;6.35;;;;;;;20.67;77.73;99472.63;4989820;28;20483;-62
2022/06/02 02:24:30;;;;;;;7.97;6.37;;;;;;;20.66;77.09;99482.19;4990386;28;20616;-63
2022/06/02 02:27:01;;;;;;;7.13;6.53;;;;;;;20.65;77.31;99484.88;4990427;28;20201;-62
2022/06/02 02:29:49;;;;;;;6.57;5.87;;;;;;;20.64;77.18;99477.91;4990373;28;20284;-62
2022/06/02 02:32:27;;;;;;;13.97;6.23;;;;;;;20.62;77.08;99480.56;4990381;28;20198;-61
2022/06/02 02:35:07;;;;;;;11.83;6.83;;;;;;;20.62;77.41;99483.19;4990273;28;20253;-64
2022/06/02 02:37:41;;;;;;;8.60;6.93;;;;;;;20.55;77.27;99482.47;4990540;28;20217;-63
2022/06/02 02:40:13;;;;;;;7.80;6.03;;;;;;;20.48;77.57;99486.13;4990132;28;20677;-63
2022/06/02 02:42:48;;;;;;;8.13;6.17;;;;;;;20.51;77.45;99485.19;4990240;28;20677;-63
2022/06/02 02:45:29;;;;;;;8.00;6.27;;;;;;;20.47;77.21;99483.53;4990269;28;20209;-61
2022/06/02 02:48:05;;;;;;;9.68;6.03;;;;;;;20.52;77.16;99473.84;4991322;28;20574;-63
2022/06/02 02:50:39;;;;;;;5.80;5.17;;;;;;;20.61;76.46;99473.63;4993706;28;20213;-63
2022/06/02 02:53:15;;;;;;;8.47;5.67;;;;;;;20.59;75.85;99476.28;4993620;28;20202;-63
2022/06/02 02:55:48;;;;;;;7.10;5.20;;;;;;;20.59;75.97;99484.13;4993228;28;20739;-62
2022/06/02 02:58:21;;;;;;;6.23;5.50;;;;;;;20.58;75.75;99485.00;4993227;28;20198;-62
2022/06/02 03:00:59;;;;;;;6.33;5.70;;;;;;;20.58;75.79;99487.63;4993583;28;20600;-63
2022/06/02 03:03:32;;;;;;;8.32;5.80;;;;;;;20.59;75.70;99486.72;4992412;28;20444;-63
2022/06/02 03:06:20;;;;;;;7.67;5.23;;;;;;;20.77;74.43;99490.63;4993112;28;20190;-63
2022/06/02 03:08:55;;;;;;;8.03;4.90;;;;;;;20.83;74.13;99487.88;4993346;28;20218;-63
2022/06/02 03:11:47;;;;;;;5.97;5.30;;;;;;;20.90;73.69;99485.97;4993365;28;20201;-63
2022/06/02 03:14:26;;;;;;;6.37;5.47;;;;;;;20.88;73.55;99487.72;4990657;28;20198;-63
2022/06/02 03:17:11;;;;;;;10.60;5.60;;;;;;;20.85;73.69;99477.41;4993338;28;20201;-63
2022/06/02 03:19:51;;;;;;;7.43;5.30;;;;;;;20.94;73.83;99482.38;4993055;28;20190;-63
2022/06/02 03:22:33;;;;;;;5.80;5.30;;;;;;;20.98;73.64;99484.88;4993045;28;20229;-62
2022/06/02 03:25:10;;;;;;;10.80;6.40;;;;;;;21.05;73.45;99480.31;4992856;28;20261;-63
2022/06/02 03:27:47;;;;;;;12.47;6.03;;;;;;;21.10;73.30;99489.78;4992667;28;20190;-63
2022/06/02 03:30:21;;;;;;;8.38;5.80;;;;;;;21.25;72.89;99493.75;4992064;28;20972;-63
2022/06/02 03:33:16;;;;;;;11.23;5.97;;;;;;;21.37;72.49;99501.25;4992999;28;20194;-63
2022/06/02 03:35:56;;;;;;;7.23;5.70;;;;;;;21.37;72.38;99501.25;4991202;28;20194;-62
2022/06/02 03:38:38;;;;;;;7.87;5.57;;;;;;;21.42;72.38;99504.63;4992824;28;20577;-63
2022/06/02 03:41:23;;;;;;;7.80;6.10;;;;;;;21.54;71.90;99511.25;4992794;28;20265;-62
2022/06/02 03:43:57;;;;;;;8.27;6.38;;;;;;;21.54;71.90;99503.41;4992589;28;20444;-63
2022/06/02 03:46:39;;;;;;;8.77;6.63;;;;;;;21.58;71.95;99508.53;4992448;28;20190;-61
2022/06/02 03:49:42;;;;;;;8.57;6.33;;;;;;;21.66;71.39;99501.31;4992510;28;20260;-63
2022/06/02 03:52:23;;;;;;;6.10;5.57;;;;;;;21.76;71.00;99504.50;4991961;28;20252;-62
2022/06/02 03:55:03;;;;;;;8.07;5.93;;;;;;;21.80;70.85;99503.53;4992485;28;20202;-64
2022/06/02 03:57:53;;;;;;;9.17;6.67;;;;;;;21.86;71.04;99497.28;4992670;28;20292;-63
2022/06/02 04:00:24;;;;;;;12.67;6.77;;;;;;;21.96;70.87;99501.34;4991252;28;20686;-63
2022/06/02 04:02:53;;;;;;;10.33;6.17;;;;;;;21.98;70.68;99507.38;4992443;28;20256;-63
2022/06/02 04:05:34;;;;;;;8.13;6.63;;;;;;;22.07;69.72;99509.75;4992247;28;20198;-62
2022/06/02 04:08:16;;;;;;;7.20;6.13;;;;;;;22.12;68.90;99503.47;4992470;28;20272;-62
2022/06/02 04:10:53;;;;;;;8.43;6.82;;;;;;;22.22;69.53;99499.66;4991778;28;20954;-62
2022/06/02 04:13:37;;;;;;;8.70;6.57;;;;;;;22.30;68.79;99499.44;4991948;28;20198;-62
2022/06/02 04:16:22;;;;;;;7.80;6.20;;;;;;;22.32;68.48;99503.72;4992473;28;20352;-63
2022/06/02 04:20:34;;;;;;;8.23;6.17;;;;;;;22.22;67.84;99502.28;4992220;28;20198;-63
2022/06/02 04:21:59;;;;;;;7.83;5.90;;;;;;;22.20;68.38;99509.31;4991906;28;20229;-62
2022/06/02 04:24:37;;;;;;;7.03;6.03;;;;;;;22.15;68.18;99505.13;4991689;28;20202;-62
2022/06/02 04:27:13;;;;;;;10.85;6.90;;;;;;;22.29;68.06;99501.19;4990702;28;20502;-62
2022/06/02 04:30:02;;;;;;;9.57;6.33;;;;;;;22.36;67.76;99507.06;4991573;28;20217;-62
2022/06/02 04:32:40;;;;;;;10.40;6.83;;;;;;;22.28;68.18;99509.06;4991618;28;20199;-63
2022/06/02 04:35:18;;;;;;;9.93;6.40;;;;;;;22.34;67.64;99507.13;4991469;28;20198;-62
2022/06/02 04:37:56;;;;;;;10.47;7.07;;;;;;;22.43;67.40;99516.47;4991474;28;20197;-62
2022/06/02 04:40:39;;;;;;;11.47;6.23;;;;;;;22.47;67.27;99519.88;4991538;28;20218;-63
2022/06/02 04:43:17;;;;;;;8.53;6.63;;;;;;;22.49;67.18;99523.28;4991259;28;20194;-62
2022/06/02 04:45:56;;;;;;;10.10;7.43;;;;;;;22.42;67.35;99508.66;4991401;28;20198;-63
2022/06/02 04:48:34;;;;;;;8.60;7.07;;;;;;;22.49;67.25;99518.91;4991481;28;20194;-63
2022/06/02 04:51:11;;;;;;;7.47;6.73;;;;;;;22.61;66.79;99521.13;4991092;28;20268;-62
2022/06/02 04:53:46;;;;;;;9.95;7.45;;;;;;;22.80;66.88;99519.66;4989952;28;20440;-62
2022/06/02 04:56:20;;;;;;;7.90;6.83;;;;;;;22.93;65.31;99514.88;4991209;28;20217;-61
2022/06/02 04:58:54;;;;;;;9.63;6.93;;;;;;;22.99;65.07;99516.44;4991539;28;20205;-61
2022/06/02 05:01:35;;;;;;;11.40;7.40;;;;;;;23.04;65.45;99527.59;4991006;28;20244;-62
2022/06/02 05:04:13;;;;;;;11.37;7.80;;;;;;;23.16;64.69;99522.78;4991350;28;20253;-63
2022/06/02 05:06:46;;;;;;;12.17;7.13;;;;;;;23.16;64.60;99522.78;4991005;28;20201;-63
2022/06/02 05:09:22;;;;;;;9.27;7.67;;;;;;;23.21;64.57;99520.88;4990916;28;20248;-62
2022/06/02 05:12:00;;;;;;;10.70;7.87;;;;;;;23.38;64.62;99525.56;4990583;28;20593;-63
2022/06/02 05:14:34;;;;;;;9.83;6.83;;;;;;;23.41;63.18;99518.44;4990647;28;20621;-63
2022/06/02 05:17:20;;;;;;;10.67;6.90;;;;;;;23.53;62.50;99521.53;4990600;28;20187;-63
2022/06/02 05:20:04;;;;;;;11.40;6.73;;;;;;;23.61;63.04;99520.38;4990746;28;20197;-62
2022/06/02 05:23:11;;;;;;;10.00;7.10;;;;;;;23.73;62.05;99521.69;4990258;28;20230;-63
2022/06/02 05:26:05;;;;;;;9.87;6.93;;;;;;;23.77;62.07;99516.25;4949408;29;20262;-63
2022/06/02 05:29:01;;;;;;;8.53;6.07;;;;;;;23.75;61.51;99523.34;4990638;28;20712;-62
2022/06/02 05:32:07;;;;;;;8.30;6.07;;;;;;;23.83;61.58;99518.66;4990330;28;20615;-63
2022/06/02 05:35:04;;;;;;;9.75;6.22;;;;;;;23.96;60.94;99529.56;4990239;28;20439;-63
2022/06/02 05:37:44;;;;;;;10.07;6.10;;;;;;;24.04;59.99;99530.97;4990149;28;20285;-63
2022/06/02 05:40:20;;;;;;;8.47;6.10;;;;;;;24.12;60.03;99535.13;4990243;28;20194;-62
2022/06/02 05:42:59;;;;;;;8.67;6.07;;;;;;;24.09;60.63;99528.19;4990607;28;20198;-62
2022/06/02 05:45:41;;;;;;;6.83;6.00;;;;;;;24.16;60.88;99531.47;4990131;28;20197;-63
2022/06/02 05:48:24;;;;;;;11.50;6.80;;;;;;;24.30;60.00;99530.03;4990417;28;20280;-63
2022/06/02 05:50:58;;;;;;;10.10;6.47;;;;;;;24.38;59.97;99533.19;4989156;28;20526;-62
2022/06/02 05:53:40;;;;;;;8.13;6.10;;;;;;;24.47;60.03;99535.47;4990096;28;20193;-62
2022/06/02 05:56:14;;;;;;;6.73;6.13;;;;;;;24.58;59.78;99535.06;4990466;28;20197;-56
2022/06/02 05:59:01;;;;;;;7.80;6.40;;;;;;;24.70;59.97;99537.16;4990403;28;20213;-55
2022/06/02 06:01:43;;;;;;;6.97;6.30;;;;;;;24.75;59.86;99540.47;4989886;28;20321;-54
2022/06/02 06:04:37;;;;;;;9.37;6.50;;;;;;;24.81;58.99;99532.34;4990121;28;20214;-56
2022/06/02 06:07:14;;;;;;;9.87;6.67;;;;;;;24.73;59.89;99529.16;4990141;28;20284;-55
2022/06/02 06:09:54;;;;;;;8.87;6.50;;;;;;;24.87;59.70;99540.00;4990010;28;20218;-55
2022/06/02 06:12:37;;;;;;;9.30;7.00;;;;;;;24.97;58.92;99532.59;4990356;28;20198;-55
2022/06/02 06:15:12;;;;;;;14.80;7.67;;;;;;;24.97;59.30;99536.06;4990326;28;20202;-55
2022/06/02 06:17:50;;;;;;;9.50;7.17;;;;;;;25.07;58.58;99537.41;4990083;28;20616;-55
2022/06/02 06:20:36;;;;;;;7.00;6.13;;;;;;;25.12;57.24;99537.22;4989809;28;20549;-55
2022/06/02 06:23:47;;;;;;;6.77;6.03;;;;;;;25.22;57.02;99538.50;4991891;28;20252;-55
2022/06/02 06:26:23;;;;;;;9.07;6.27;;;;;;;25.25;56.59;99525.25;4966290;28;20223;-55
2022/06/02 06:29:03;;;;;;;6.72;6.13;;;;;;;25.37;57.03;99524.72;4993742;28;20281;-55
2022/06/02 06:31:37;;;;;;;10.03;7.27;;;;;;;25.48;57.14;99525.16;4992834;28;20504;-55
2022/06/02 06:34:16;;;;;;;12.10;6.67;;;;;;;25.51;56.55;99521.53;4993409;28;20251;-55
2022/06/02 06:37:18;;;;;;;10.80;6.63;;;;;;;25.66;56.89;99523.47;4993602;28;20280;-55
2022/06/02 06:40:00;;;;;;;8.87;6.40;;;;;;;25.67;56.16;99518.13;4988383;28;20193;-55
2022/06/02 06:42:47;;;;;;;7.57;6.63;;;;;;;25.67;56.23;99527.81;4993514;28;20203;-55
2022/06/02 06:45:19;;;;;;;7.17;6.43;;;;;;;25.69;55.60;99516.28;4993276;28;20673;-56
2022/06/02 06:47:52;;;;;;;7.40;6.37;;;;;;;25.67;56.37;99515.50;4992872;28;20568;-56
2022/06/02 06:50:23;;;;;;;6.67;6.07;;;;;;;25.72;56.10;99513.53;4992843;28;20736;-56
2022/06/02 06:53:05;;;;;;;9.20;6.77;;;;;;;25.76;56.23;99508.97;4993177;28;20288;-56
2022/06/02 06:56:04;;;;;;;10.27;8.17;;;;;;;25.90;55.76;99506.56;4993013;28;20597;-56
2022/06/02 06:58:53;;;;;;;7.45;6.43;;;;;;;25.97;55.68;99510.63;4992076;28;20458;-56
2022/06/02 07:01:27;;;;;;;8.70;6.37;;;;;;;26.15;55.33;99504.53;4992802;28;20200;-56
2022/06/02 07:04:06;;;;;;;11.30;6.90;;;;;;;26.21;55.57;99508.66;4992310;28;20260;-62
2022/06/02 07:06:42;;;;;;;11.82;6.65;;;;;;;26.33;54.75;99514.22;4992854;28;20748;-63
2022/06/02 07:09:17;;;;;;;8.00;5.78;;;;;;;26.36;54.75;99515.84;4991887;28;20201;-63
2022/06/02 07:14:47;;;;;;;9.43;6.43;;;;;;;26.62;53.98;99519.84;4991229;28;20423;-63
2022/06/02 07:17:23;;;;;;;7.57;6.78;;;;;;;26.75;54.04;99519.19;4992189;28;20553;-63
2022/06/02 07:20:00;;;;;;;8.33;5.93;;;;;;;26.88;53.43;99524.75;4991782;28;20285;-64
2022/06/02 07:22:34;;;;;;;10.63;6.45;;;;;;;27.02;52.76;99522.25;4991838;28;20233;-62
2022/06/02 07:25:13;;;;;;;10.73;5.78;;;;;;;27.15;52.39;99525.13;4991920;28;20197;-63
2022/06/02 07:27:51;;;;;;;12.63;6.00;;;;;;;27.24;52.00;99524.66;4991665;28;20208;-63
2022/06/02 07:30:44;;;;;;;6.90;6.22;;;;;;;27.25;52.08;99519.28;4991858;28;20228;-62
2022/06/02 07:33:27;;;;;;;7.15;6.40;;;;;;;27.27;51.97;99521.88;4991763;28;20268;-63
2022/06/02 07:36:14;;;;;;;9.57;6.40;;;;;;;27.25;51.64;99524.56;4991926;28;20228;-63
2022/06/02 07:39:23;;;;;;;8.48;6.68;;;;;;;27.25;51.30;99532.50;4991739;28;20293;-64
2022/06/02 07:42:09;;;;;;;12.30;6.25;;;;;;;27.32;51.29;99525.13;4991636;28;20245;-63
2022/06/02 07:45:18;;;;;;;8.10;6.50;;;;;;;27.41;51.25;99522.88;4991254;28;20226;-63
2022/06/02 07:48:09;;;;;;;7.18;6.47;;;;;;;27.52;51.38;99523.19;4986116;28;20253;-63
2022/06/02 07:50:39;;;;;;;6.97;6.30;;;;;;;27.70;51.35;99523.16;4991188;28;20233;-63
2022/06/02 07:53:13;;;;;;;7.07;6.13;;;;;;;27.81;51.03;99529.56;4991882;28;20205;-63
2022/06/02 07:55:49;;;;;;;8.63;6.28;;;;;;;27.96;51.10;99528.72;4990840;28;20445;-64
2022/06/02 07:58:29;;;;;;;8.20;6.07;;;;;;;28.08;49.56;99522.81;4991006;28;20277;-63
2022/06/02 08:01:06;;;;;;;11.63;6.57;;;;;;;28.24;49.84;99524.63;4990912;28;20186;-62
2022/06/02 08:03:52;;;;;;;7.03;6.43;;;;;;;28.36;49.15;99523.94;4991188;28;20264;-63
2022/06/02 08:06:27;;;;;;;10.43;7.13;;;;;;;28.44;49.06;99529.66;4991320;28;20198;-63
2022/06/02 08:09:14;;;;;;;10.45;6.30;;;;;;;28.46;47.97;99525.13;4991408;28;20228;-62
2022/06/02 08:11:49;;;;;;;8.68;6.93;;;;;;;28.55;48.25;99521.97;4990924;28;20712;-63
2022/06/02 08:14:28;;;;;;;10.88;6.50;;;;;;;28.62;48.51;99523.34;4990799;28;20190;-63
2022/06/02 08:17:01;;;;;;;9.25;6.88;;;;;;;28.73;46.24;99525.41;4991503;28;20253;-62
2022/06/02 08:19:45;;;;;;;7.40;6.65;;;;;;;28.79;46.27;99511.81;4991237;28;20199;-62
2022/06/02 08:22:15;;;;;;;8.73;7.82;;;;;;;28.71;46.27;99521.97;4990172;28;20464;-63
2022/06/02 08:24:57;;;;;;;9.35;6.35;;;;;;;28.99;46.68;99516.78;4991110;28;20257;-64
2022/06/02 08:27:53;;;;;;;6.72;6.13;;;;;;;29.09;46.38;99516.16;4991197;28;20201;-64
2022/06/02 08:30:23;;;;;;;5.53;5.07;;;;;;;29.19;45.27;99504.09;4990458;28;20213;-64
2022/06/02 08:33:06;;;;;;;10.90;6.10;;;;;;;29.31;44.81;99507.81;4990416;28;20691;-63
2022/06/02 08:35:40;;;;;;;6.82;6.05;;;;;;;29.34;45.18;99507.63;4990391;28;20201;-64
2022/06/02 08:38:27;;;;;;;10.52;6.78;;;;;;;29.38;44.21;99505.66;4989456;28;20515;-64
2022/06/02 08:41:31;;;;;;;8.35;6.43;;;;;;;29.42;44.04;99510.66;4990809;28;20186;-64
2022/06/02 08:44:37;;;;;;;7.50;6.18;;;;;;;29.43;44.35;99507.09;4990229;28;20276;-64
2022/06/02 08:47:31;;;;;;;10.27;5.82;;;;;;;29.39;44.20;99510.88;4990330;28;20201;-64
2022/06/02 08:50:22;;;;;;;8.55;5.85;;;;;;;29.43;44.54;99507.09;4960496;28;20248;-63
2022/06/02 08:53:26;;;;;;;8.95;5.70;;;;;;;29.37;43.38;99503.94;4990322;28;20261;-63
2022/06/02 08:56:12;;;;;;;9.10;5.40;;;;;;;29.32;42.52;99506.03;4990493;28;20194;-64
2022/06/02 08:59:15;;;;;;;5.85;5.35;;;;;;;29.09;43.96;99504.75;4990281;28;20193;-64
2022/06/02 09:02:20;;;;;;;7.38;5.85;;;;;;;29.30;44.87;99494.69;4990692;28;20194;-64
2022/06/02 09:05:25;;;;;;;8.43;5.83;;;;;;;29.20;44.12;99499.63;4989848;28;20887;-64
2022/06/02 09:08:14;;;;;;;7.63;5.25;;;;;;;29.35;44.23;99504.06;4989984;28;20440;-64
2022/06/02 09:11:06;;;;;;;5.88;4.90;;;;;;;29.15;41.95;99493.75;4987418;28;20260;-63
2022/06/02 09:14:05;;;;;;;5.90;5.32;;;;;;;29.41;43.53;99498.41;4990109;28;20194;-61
2022/06/02 09:16:44;;;;;;;6.47;5.22;;;;;;;29.42;42.23;99504.56;4976037;28;20264;-63
2022/06/02 09:19:48;;;;;;;8.82;5.53;;;;;;;29.35;41.73;99498.75;4990195;28;20200;-63
2022/06/02 09:22:34;;;;;;;7.13;5.53;;;;;;;29.36;42.66;99499.63;4959186;28;20693;-63
2022/06/02 09:25:28;;;;;;;8.02;7.03;;;;;;;29.61;42.27;99497.19;4970549;28;20270;-63
2022/06/02 09:28:28;;;;;;;6.80;6.20;;;;;;;29.84;43.04;99491.31;4970720;28;20681;-63
2022/06/02 09:31:07;;;;;;;8.05;5.70;;;;;;;30.10;43.09;99495.84;4970382;28;20226;-64
2022/06/02 09:33:56;;;;;;;7.22;5.43;;;;;;;30.23;41.24;99495.91;4970385;28;20195;-63
2022/06/02 09:36:54;;;;;;;6.78;5.15;;;;;;;30.32;40.50;99495.31;4969891;28;20195;-63
2022/06/02 09:39:44;;;;;;;6.90;5.05;;;;;;;30.33;40.20;99497.88;4969779;28;20249;-63
2022/06/02 09:42:34;;;;;;;9.50;6.03;;;;;;;30.41;40.91;99494.75;4970440;28;20217;-63
2022/06/02 09:45:18;;;;;;;14.73;7.68;;;;;;;30.57;40.51;99491.97;4970664;28;20206;-63
2022/06/02 09:48:01;;;;;;;7.93;5.63;;;;;;;30.60;40.62;99489.94;4970453;28;20187;-63
2022/06/02 09:50:46;;;;;;;9.27;5.50;;;;;;;30.63;40.13;99488.91;4970108;28;20202;-63
2022/06/02 09:53:38;;;;;;;5.70;5.03;;;;;;;30.52;40.57;99486.94;4970335;28;20512;-63
2022/06/02 09:56:20;;;;;;;7.32;5.93;;;;;;;30.59;40.22;99490.91;4970380;28;20191;-63
2022/06/02 09:59:10;;;;;;;5.70;5.15;;;;;;;30.47;40.41;99483.75;4974009;28;20199;-63
2022/06/02 10:01:47;;;;;;;7.93;5.07;;;;;;;30.68;40.65;99485.00;4974628;28;20206;-64
2022/06/02 10:05:02;;;;;;;7.10;5.50;;;;;;;30.88;40.26;99476.53;4973242;28;20515;-62
2022/06/02 10:07:40;;;;;;;6.32;5.75;;;;;;;31.13;40.48;99478.41;4959353;28;20199;-63
2022/06/02 10:10:39;;;;;;;10.52;7.68;;;;;;;31.34;37.84;99486.75;4974208;28;20249;-63
2022/06/02 10:13:39;;;;;;;8.20;4.80;;;;;;;31.25;36.80;99479.41;4967054;28;20195;-62
2022/06/02 10:16:31;;;;;;;7.75;4.72;;;;;;;31.19;36.27;99477.16;4965051;28;20261;-64
2022/06/02 10:19:27;;;;;;;6.45;5.00;;;;;;;31.21;36.83;99452.19;4971918;28;20199;-64
2022/06/02 10:22:01;;;;;;;6.10;5.53;;;;;;;31.46;36.91;99470.81;4985057;28;20230;-62
2022/06/02 10:25:18;;;;;;;8.52;5.80;;;;;;;31.54;35.49;99464.97;4993040;28;20260;-64
2022/06/02 10:28:21;;;;;;;5.40;4.90;;;;;;;31.40;35.38;99457.06;4913559;29;20264;-64
2022/06/02 10:31:38;;;;;;;7.47;5.60;;;;;;;31.20;35.40;99454.97;4912950;29;20834;-63
2022/06/02 10:34:33;;;;;;;16.40;11.48;;;;;;;31.23;36.43;99458.28;4992789;28;20261;-63
2022/06/02 10:37:11;;;;;;;7.35;5.18;;;;;;;31.44;35.80;99453.25;4992708;28;20276;-62
2022/06/02 10:39:55;;;;;;;8.05;5.30;;;;;;;31.61;34.99;99449.47;4992891;28;20281;-62
2022/06/02 10:42:42;;;;;;;12.05;8.32;;;;;;;31.80;36.02;99450.69;4992612;28;20546;-64
2022/06/02 10:45:25;;;;;;;10.35;6.45;;;;;;;32.02;34.38;99444.72;4992424;28;20488;-62
2022/06/02 10:48:20;;;;;;;7.05;6.13;;;;;;;32.16;33.67;99444.56;4992849;28;20265;-64
2022/06/02 10:51:13;;;;;;;6.22;5.63;;;;;;;32.21;32.55;99439.75;4992690;28;20198;-64
2022/06/02 10:54:27;;;;;;;6.65;6.05;;;;;;;32.22;32.76;99436.16;4992658;28;20198;-64
2022/06/02 10:57:18;;;;;;;4.55;4.15;;;;;;;32.10;33.25;99437.03;4946924;28;20190;-62
2022/06/02 11:00:21;;;;;;;9.10;4.65;;;;;;;32.02;32.71;99434.09;4992937;28;20221;-64
2022/06/02 11:03:33;;;;;;;6.57;4.43;;;;;;;31.79;32.92;99427.72;4984149;28;20708;-62
2022/06/02 11:06:35;;;;;;;5.50;4.93;;;;;;;31.94;33.51;99428.44;4987986;28;20194;-64
2022/06/02 11:09:35;;;;;;;6.45;5.47;;;;;;;32.01;33.42;99429.72;4991929;28;20248;-63
2022/06/02 11:12:39;;;;;;;7.20;4.78;;;;;;;32.04;32.24;99427.69;4991963;28;21020;-64
2022/06/02 11:15:30;;;;;;;4.97;4.07;;;;;;;31.69;32.12;99424.03;4992432;28;20283;-64
2022/06/02 11:18:46;;;;;;;5.20;4.53;;;;;;;31.44;34.02;99421.38;4992200;28;20198;-62
2022/06/02 11:21:48;;;;;;;5.03;4.53;;;;;;;31.59;33.91;99420.31;4992186;28;20222;-63
2022/06/02 11:24:46;;;;;;;6.18;4.78;;;;;;;31.61;34.39;99415.78;4992458;28;20193;-63
2022/06/02 11:27:46;;;;;;;5.13;4.63;;;;;;;31.51;33.94;99404.94;4992592;28;20565;-63
2022/06/02 11:30:31;;;;;;;7.50;4.90;;;;;;;31.70;33.91;99407.13;4990973;28;20590;-63
2022/06/02 11:33:17;;;;;;;6.70;5.15;;;;;;;31.52;33.98;99405.78;4992257;28;20273;-63
2022/06/02 11:36:17;;;;;;;7.00;4.32;;;;;;;31.62;33.75;99413.97;4991861;28;20193;-63
2022/06/02 11:39:31;;;;;;;5.55;5.10;;;;;;;31.76;33.38;99404.03;4991516;28;20700;-64
2022/06/02 11:42:11;;;;;;;5.60;4.72;;;;;;;31.86;32.88;99402.44;4961172;28;21050;-64
2022/06/02 11:44:54;;;;;;;6.18;4.45;;;;;;;31.95;32.95;99399.06;4991852;28;20205;-64
2022/06/02 11:48:04;;;;;;;9.05;5.18;;;;;;;32.07;33.01;99390.25;4991678;28;20201;-63
2022/06/02 11:50:52;;;;;;;7.10;5.05;;;;;;;32.11;33.08;99394.38;4987079;28;20257;-64
2022/06/02 11:53:39;;;;;;;5.57;4.90;;;;;;;32.37;32.48;99386.28;4991495;28;20190;-63
2022/06/02 11:56:13;;;;;;;5.55;4.93;;;;;;;32.11;32.51;99338.53;4991999;28;20190;-63
2022/06/02 11:59:11;;;;;;;7.43;5.40;;;;;;;32.29;32.52;99386.00;4991354;28;20194;-64
2022/06/02 12:01:53;;;;;;;7.22;6.53;;;;;;;32.53;33.14;99394.78;4991692;28;20634;-63
2022/06/02 12:04:55;;;;;;;5.80;5.18;;;;;;;32.48;32.67;99381.00;4991449;28;20206;-64
2022/06/02 12:08:12;;;;;;;6.10;4.53;;;;;;;32.56;32.57;99383.94;4991554;28;20198;-64
2022/06/02 12:11:15;;;;;;;5.30;4.80;;;;;;;32.47;31.94;99376.66;4991243;28;20507;-63
2022/06/02 12:14:00;;;;;;;6.28;4.47;;;;;;;32.42;31.93;99379.63;4990997;28;20197;-64
2022/06/02 12:16:40;;;;;;;5.20;4.68;;;;;;;32.61;32.08;99369.34;4991266;28;20194;-64
2022/06/02 12:19:39;;;;;;;6.25;5.18;;;;;;;32.89;32.21;99362.75;4991275;28;20264;-63
2022/06/02 12:22:22;;;;;;;6.55;5.07;;;;;;;33.05;31.20;99363.28;4958485;28;20300;-63
2022/06/02 12:25:21;;;;;;;6.35;4.35;;;;;;;33.22;31.18;99354.81;4990940;28;20198;-64
2022/06/02 12:28:10;;;;;;;8.77;4.70;;;;;;;33.29;30.56;99352.53;4991231;28;20225;-64
2022/06/02 12:30:50;;;;;;;5.72;5.22;;;;;;;33.35;30.48;99349.34;4991167;28;21060;-64
2022/06/02 12:33:51;;;;;;;6.72;4.78;;;;;;;33.36;29.96;99351.06;4990943;28;20276;-63
2022/06/02 12:36:33;;;;;;;5.70;5.05;;;;;;;33.42;30.74;99353.25;4991058;28;20202;-63
2022/06/02 12:39:26;;;;;;;9.52;4.38;;;;;;;33.72;29.42;99361.47;4989771;28;20863;-63
2022/06/02 12:42:43;;;;;;;5.00;4.03;;;;;;;33.72;29.73;99355.28;5087016;27;20545;-63
2022/06/02 12:45:45;;;;;;;5.28;4.75;;;;;;;34.01;29.56;99342.25;5086833;28;20195;-64
2022/06/02 12:49:02;;;;;;;11.05;4.80;;;;;;;34.26;28.40;99341.91;5086788;28;20228;-63
2022/06/02 12:51:40;;;;;;;5.38;4.63;;;;;;;34.21;29.31;99336.97;5086676;28;20626;-63
2022/06/02 12:54:51;;;;;;;7.40;4.78;;;;;;;34.42;28.05;99336.16;5086003;28;20517;-63
2022/06/02 12:58:06;;;;;;;8.90;4.88;;;;;;;34.54;27.62;99335.09;5073202;28;20253;-63
2022/06/02 13:00:50;;;;;;;7.40;4.82;;;;;;;34.60;27.59;99327.47;5045523;28;20249;-64
2022/06/02 13:03:55;;;;;;;6.15;4.40;;;;;;;34.54;27.91;99325.28;5086692;28;20190;-63